Time;durP1;ratioP1;P1;durP2;ratioP2;P2;SDS_P1;SDS_P2;PMS_P1;PMS_P2;Temp;Humidity;BMP_temperature;BMP_pressure;BME280_temperature;BME280_humidity;BME280_pressure;Samples;Min_cycle;Max_cycle;Signal;HPM_P1;HPM_P2
2022/07/10 00:00:35;;;;;;;2.13;1.83;;;16.80;66.20;;;;;;4952674;28;20054;-71
2022/07/10 00:03:01;;;;;;;1.98;1.83;;;16.80;66.30;;;;;;4960147;28;20124;-70
2022/07/10 00:05:27;;;;;;;2.05;1.70;;;16.70;66.40;;;;;;4930554;28;20113;-71
2022/07/10 00:07:52;;;;;;;4.28;2.05;;;16.70;66.50;;;;;;4916027;28;20633;-69
2022/07/10 00:10:18;;;;;;;3.05;1.80;;;16.70;66.80;;;;;;4942993;28;20050;-70
2022/07/10 00:12:48;;;;;;;2.35;1.80;;;16.60;66.80;;;;;;4947755;28;20618;-70
2022/07/10 00:15:14;;;;;;;6.25;2.05;;;16.70;67.20;;;;;;4946021;28;20104;-70
2022/07/10 00:17:40;;;;;;;3.63;1.95;;;16.60;67.20;;;;;;4946100;28;20534;-69
2022/07/10 00:20:06;;;;;;;2.92;1.90;;;16.60;67.30;;;;;;4960096;28;20038;-70
2022/07/10 00:22:35;;;;;;;3.80;1.90;;;16.60;67.50;;;;;;4952485;28;20437;-70
2022/07/10 00:25:02;;;;;;;2.83;1.63;;;16.50;67.40;;;;;;4960611;28;20027;-70
2022/07/10 00:27:27;;;;;;;4.47;1.92;;;16.50;67.70;;;;;;4929922;28;20549;-70
2022/07/10 00:29:53;;;;;;;5.57;2.10;;;16.50;67.80;;;;;;4950088;28;20062;-73
2022/07/10 00:32:18;;;;;;;1.80;1.50;;;16.50;68.00;;;;;;4944816;28;20065;-70
2022/07/10 00:34:44;;;;;;;3.70;1.70;;;16.40;68.00;;;;;;4958411;28;20065;-71
2022/07/10 00:37:10;;;;;;;4.13;1.67;;;16.40;68.10;;;;;;4966245;28;20038;-72
2022/07/10 00:39:36;;;;;;;2.85;1.50;;;16.40;68.10;;;;;;4965997;28;20281;-72
2022/07/10 00:42:13;;;;;;;1.65;1.40;;;16.40;68.20;;;;;;4945725;28;20503;-70
2022/07/10 00:44:39;;;;;;;1.75;1.27;;;16.30;68.50;;;;;;4946971;28;20067;-70
2022/07/10 00:47:04;;;;;;;1.65;1.15;;;16.40;68.20;;;;;;4938035;28;20071;-71
2022/07/10 00:49:31;;;;;;;1.45;1.13;;;16.30;68.20;;;;;;4967595;28;20031;-72
2022/07/10 00:51:56;;;;;;;3.42;1.83;;;16.30;68.20;;;;;;4949246;28;20523;-71
2022/07/10 00:54:22;;;;;;;2.40;1.42;;;16.30;68.20;;;;;;4925594;28;20042;-71
2022/07/10 00:56:48;;;;;;;2.97;1.42;;;16.30;68.20;;;;;;4947044;28;20043;-71
2022/07/10 00:59:13;;;;;;;2.78;1.63;;;16.20;68.30;;;;;;4930163;28;20043;-71
2022/07/10 01:01:39;;;;;;;3.47;1.33;;;16.20;68.30;;;;;;4960033;28;20032;-70
2022/07/10 01:04:04;;;;;;;2.63;1.20;;;16.20;68.40;;;;;;4936429;28;20046;-72
2022/07/10 01:06:30;;;;;;;2.88;1.42;;;16.20;68.30;;;;;;4964694;28;20031;-71
2022/07/10 01:08:55;;;;;;;1.02;1.00;;;16.10;68.30;;;;;;4941027;28;20067;-70
2022/07/10 01:11:21;;;;;;;6.35;1.30;;;16.10;68.40;;;;;;4933830;28;20042;-72
2022/07/10 01:13:47;;;;;;;2.08;1.20;;;16.10;68.30;;;;;;4919180;28;20122;-72
2022/07/10 01:16:13;;;;;;;4.57;1.30;;;16.00;68.30;;;;;;4940261;28;20229;-72
2022/07/10 01:18:38;;;;;;;3.63;1.20;;;16.00;68.10;;;;;;4946890;28;20508;-71
2022/07/10 01:21:04;;;;;;;4.10;1.10;;;16.00;68.20;;;;;;4967788;28;20039;-72
2022/07/10 01:23:30;;;;;;;4.80;1.08;;;16.00;68.30;;;;;;4942023;28;20039;-71
2022/07/10 01:25:55;;;;;;;2.55;1.20;;;15.90;68.20;;;;;;4928131;28;20055;-71
2022/07/10 01:28:21;;;;;;;3.63;1.00;;;15.90;68.10;;;;;;4937705;28;20031;-70
2022/07/10 01:30:47;;;;;;;2.20;1.10;;;15.90;68.20;;;;;;4942963;28;20435;-70
2022/07/10 01:33:12;;;;;;;2.47;1.08;;;15.90;68.10;;;;;;4919344;28;20858;-71
2022/07/10 01:35:39;;;;;;;4.72;1.30;;;15.80;68.20;;;;;;4949488;28;20042;-71
2022/07/10 01:38:04;;;;;;;3.42;1.15;;;15.80;68.10;;;;;;4933478;28;20057;-71
2022/07/10 01:40:30;;;;;;;4.15;0.98;;;15.80;68.20;;;;;;4954694;28;20035;-70
2022/07/10 01:42:55;;;;;;;1.80;0.95;;;15.80;68.20;;;;;;4937060;28;20048;-70
2022/07/10 01:45:21;;;;;;;1.67;0.77;;;15.80;68.20;;;;;;4940100;28;20041;-70
2022/07/10 01:47:46;;;;;;;2.42;1.10;;;15.70;68.10;;;;;;4961066;28;20034;-71
2022/07/10 01:50:12;;;;;;;2.53;0.80;;;15.70;68.10;;;;;;4931069;28;20051;-70
2022/07/10 01:52:37;;;;;;;4.72;1.05;;;15.70;68.10;;;;;;4939096;28;20095;-70
2022/07/10 01:55:04;;;;;;;2.08;1.05;;;15.70;68.10;;;;;;4965948;28;20039;-70
2022/07/10 01:57:29;;;;;;;1.63;0.85;;;15.60;68.10;;;;;;4941691;28;20062;-70
2022/07/10 01:59:55;;;;;;;3.05;0.77;;;15.60;68.00;;;;;;4934257;28;20038;-70
2022/07/10 02:02:21;;;;;;;2.10;0.85;;;15.60;68.00;;;;;;4937664;28;20031;-71
2022/07/10 02:04:47;;;;;;;2.00;0.93;;;15.60;68.10;;;;;;4954528;28;20038;-71
2022/07/10 02:07:13;;;;;;;4.15;0.90;;;15.60;68.10;;;;;;4942180;28;20049;-70
2022/07/10 02:09:39;;;;;;;1.67;0.85;;;15.50;68.10;;;;;;4950751;28;20375;-70
2022/07/10 02:12:06;;;;;;;2.28;0.80;;;15.50;68.10;;;;;;4968523;28;20512;-70
2022/07/10 02:14:31;;;;;;;1.75;0.73;;;15.50;68.10;;;;;;4953210;28;20067;-70
2022/07/10 02:16:57;;;;;;;1.42;0.85;;;15.40;68.10;;;;;;4956141;28;20038;-70
2022/07/10 02:19:22;;;;;;;1.20;0.63;;;15.40;68.40;;;;;;4960473;28;20209;-70
2022/07/10 02:21:48;;;;;;;1.95;1.02;;;15.30;68.00;;;;;;4949920;28;20070;-70
2022/07/10 02:24:13;;;;;;;1.52;0.75;;;15.30;68.10;;;;;;4924344;28;20042;-70
2022/07/10 02:26:39;;;;;;;2.15;0.70;;;15.30;68.00;;;;;;4948774;28;20599;-70
2022/07/10 02:29:04;;;;;;;2.15;0.88;;;15.30;68.10;;;;;;4927149;28;20044;-70
2022/07/10 02:31:30;;;;;;;5.20;1.02;;;15.20;68.00;;;;;;4960873;28;20147;-73
2022/07/10 02:33:56;;;;;;;1.98;0.80;;;15.20;68.90;;;;;;4933151;28;20132;-70
2022/07/10 02:36:21;;;;;;;1.23;0.70;;;15.10;68.00;;;;;;4927442;28;20520;-72
2022/07/10 02:38:47;;;;;;;3.90;0.80;;;15.10;67.90;;;;;;4945444;28;20084;-70
2022/07/10 02:41:12;;;;;;;2.72;0.57;;;15.10;67.90;;;;;;4936803;28;20047;-71
2022/07/10 02:43:38;;;;;;;2.35;0.70;;;15.00;67.80;;;;;;4950308;28;20035;-71
2022/07/10 02:46:04;;;;;;;2.90;0.82;;;15.00;67.80;;;;;;4947713;28;20039;-70
2022/07/10 02:48:30;;;;;;;2.00;0.70;;;14.90;67.80;;;;;;4917242;28;20046;-70
2022/07/10 02:50:55;;;;;;;3.63;0.80;;;14.90;67.70;;;;;;4957816;28;21213;-70
2022/07/10 02:53:21;;;;;;;2.20;0.73;;;14.90;67.70;;;;;;4938572;28;20035;-69
2022/07/10 02:55:46;;;;;;;3.65;0.70;;;14.80;67.70;;;;;;4934643;28;20130;-69
2022/07/10 02:58:12;;;;;;;1.10;0.68;;;14.80;67.60;;;;;;4932808;28;20478;-71
2022/07/10 03:00:37;;;;;;;3.28;0.60;;;14.80;67.60;;;;;;4941201;28;20531;-70
2022/07/10 03:03:03;;;;;;;3.80;0.70;;;14.80;67.60;;;;;;4952263;28;20034;-70
2022/07/10 03:05:28;;;;;;;2.08;0.75;;;14.70;67.50;;;;;;4940933;28;20039;-70
2022/07/10 03:07:54;;;;;;;1.95;0.80;;;14.70;67.50;;;;;;4969195;28;20537;-69
2022/07/10 03:10:20;;;;;;;2.92;0.65;;;14.70;68.30;;;;;;4964426;28;20129;-70
2022/07/10 03:12:46;;;;;;;2.08;0.73;;;14.60;67.50;;;;;;4979185;28;21728;-69
2022/07/10 03:15:12;;;;;;;2.60;0.95;;;14.60;67.60;;;;;;4947013;28;20044;-70
2022/07/10 03:17:38;;;;;;;2.33;0.70;;;14.60;67.60;;;;;;4939300;28;20055;-71
2022/07/10 03:20:04;;;;;;;3.03;0.90;;;14.60;67.60;;;;;;4940987;28;20119;-71
2022/07/10 03:22:30;;;;;;;1.00;0.70;;;14.60;67.50;;;;;;4951852;28;20042;-70
2022/07/10 03:24:56;;;;;;;1.55;0.60;;;14.50;67.50;;;;;;4923063;28;20679;-70
2022/07/10 03:27:22;;;;;;;4.55;0.70;;;14.50;67.50;;;;;;4937999;28;20035;-72
2022/07/10 03:29:47;;;;;;;2.72;0.63;;;14.40;67.50;;;;;;4936359;28;20038;-71
2022/07/10 03:32:13;;;;;;;1.90;0.70;;;14.40;67.50;;;;;;4940923;28;20844;-70
2022/07/10 03:34:38;;;;;;;3.67;0.80;;;14.40;67.50;;;;;;4933241;28;20482;-71
2022/07/10 03:37:04;;;;;;;3.22;0.65;;;14.30;67.50;;;;;;4928040;28;20474;-70
2022/07/10 03:39:29;;;;;;;2.45;0.82;;;14.30;67.40;;;;;;4934101;28;20042;-71
2022/07/10 03:41:55;;;;;;;2.42;0.85;;;14.30;67.50;;;;;;4951399;28;20022;-70
2022/07/10 03:44:20;;;;;;;1.35;0.57;;;14.30;67.50;;;;;;4940864;28;20027;-71
2022/07/10 03:46:46;;;;;;;1.45;0.70;;;14.20;67.50;;;;;;4940875;28;20412;-71
2022/07/10 03:49:12;;;;;;;1.80;0.50;;;14.20;67.50;;;;;;4963951;28;20061;-70
2022/07/10 03:51:37;;;;;;;1.92;0.70;;;14.20;67.50;;;;;;4955432;28;20130;-69
2022/07/10 03:54:03;;;;;;;2.25;0.60;;;14.10;67.50;;;;;;4950365;28;20041;-72
2022/07/10 03:59:12;;;;;;;1.45;1.15;;;14.10;67.60;;;;;;4922024;28;20046;-71
2022/07/10 04:01:38;;;;;;;2.58;0.75;;;14.00;67.50;;;;;;4967952;28;20043;-70
2022/07/10 04:04:03;;;;;;;1.10;0.50;;;14.00;67.60;;;;;;4942583;28;20047;-70
2022/07/10 04:06:29;;;;;;;1.50;0.60;;;14.00;67.70;;;;;;4953487;28;20042;-71
2022/07/10 04:08:54;;;;;;;1.35;0.60;;;13.90;67.70;;;;;;4936892;28;20035;-71
2022/07/10 04:11:20;;;;;;;1.20;0.70;;;13.90;67.80;;;;;;4948131;28;20049;-70
2022/07/10 04:13:45;;;;;;;2.05;0.60;;;13.90;67.90;;;;;;4949852;28;20045;-70
2022/07/10 04:16:12;;;;;;;2.22;0.60;;;13.90;68.00;;;;;;4950096;28;20070;-69
2022/07/10 04:18:39;;;;;;;2.05;0.60;;;13.80;68.00;;;;;;4945622;28;20120;-71
2022/07/10 04:21:05;;;;;;;1.90;0.90;;;13.80;68.10;;;;;;4933359;28;20040;-70
2022/07/10 04:23:32;;;;;;;0.85;0.80;;;13.80;68.20;;;;;;4959005;28;20761;-71
2022/07/10 04:25:58;;;;;;;3.83;0.90;;;13.80;68.30;;;;;;4958443;28;20462;-69
2022/07/10 04:28:23;;;;;;;2.95;0.80;;;13.80;68.30;;;;;;4952557;28;20026;-70
2022/07/10 04:30:49;;;;;;;4.88;0.90;;;13.80;68.50;;;;;;4935811;28;20036;-70
2022/07/10 04:33:14;;;;;;;3.08;0.77;;;13.80;68.60;;;;;;4970476;28;20042;-70
2022/07/10 04:35:40;;;;;;;2.35;1.10;;;13.80;68.80;;;;;;4937589;28;20118;-71
2022/07/10 04:38:06;;;;;;;1.48;0.75;;;13.80;68.80;;;;;;4928425;28;20047;-70
2022/07/10 04:40:31;;;;;;;2.97;0.68;;;13.80;68.90;;;;;;4948877;28;20682;-71
2022/07/10 04:42:57;;;;;;;3.80;0.82;;;13.80;69.10;;;;;;4938339;28;21563;-71
2022/07/10 04:45:23;;;;;;;0.73;0.70;;;13.80;69.10;;;;;;4909318;28;24090;-70
2022/07/10 04:47:48;;;;;;;2.30;0.73;;;13.70;69.20;;;;;;4927479;28;20043;-70
2022/07/10 04:50:14;;;;;;;5.50;0.90;;;13.80;69.30;;;;;;4961284;28;20926;-70
2022/07/10 04:52:39;;;;;;;1.90;0.93;;;13.80;69.40;;;;;;4948028;28;20038;-71
2022/07/10 04:55:05;;;;;;;3.85;0.90;;;13.80;69.40;;;;;;4942468;28;20035;-71
2022/07/10 04:57:31;;;;;;;1.70;0.63;;;13.80;69.40;;;;;;4968108;28;20125;-71
2022/07/10 04:59:56;;;;;;;6.45;0.85;;;13.90;70.30;;;;;;4937510;28;20547;-70
2022/07/10 05:02:22;;;;;;;2.92;0.60;;;13.80;69.40;;;;;;4923928;28;20113;-70
2022/07/10 05:04:48;;;;;;;1.65;0.70;;;13.90;69.50;;;;;;4944907;28;20035;-70
2022/07/10 05:07:14;;;;;;;5.20;0.80;;;13.90;69.30;;;;;;4962131;28;20569;-70
2022/07/10 05:09:40;;;;;;;4.25;0.70;;;13.90;69.30;;;;;;4965527;28;20043;-71
2022/07/10 05:12:06;;;;;;;1.25;0.50;;;13.90;69.20;;;;;;4938289;28;20599;-70
2022/07/10 05:14:31;;;;;;;2.28;0.60;;;14.00;69.20;;;;;;4931167;28;20047;-70
2022/07/10 05:16:57;;;;;;;2.10;0.52;;;14.00;69.00;;;;;;4959031;28;20055;-69
2022/07/10 05:19:22;;;;;;;2.53;0.60;;;14.00;68.90;;;;;;4934663;28;20041;-71
2022/07/10 05:21:48;;;;;;;1.15;1.02;;;14.00;68.80;;;;;;4969070;28;20404;-69
2022/07/10 05:24:13;;;;;;;4.45;1.10;;;14.10;68.70;;;;;;4934224;28;20057;-71
2022/07/10 05:26:39;;;;;;;4.55;1.02;;;14.10;68.60;;;;;;4947676;28;20104;-70
2022/07/10 05:29:05;;;;;;;3.28;0.70;;;14.10;68.50;;;;;;4964061;28;20039;-70
2022/07/10 05:31:30;;;;;;;3.30;0.90;;;14.20;68.50;;;;;;4943030;28;20031;-70
2022/07/10 05:33:56;;;;;;;4.03;0.85;;;14.20;68.40;;;;;;4973563;28;20027;-70
2022/07/10 05:36:21;;;;;;;2.40;0.50;;;14.20;68.20;;;;;;4976085;28;20059;-70
2022/07/10 05:38:47;;;;;;;4.38;0.70;;;14.20;68.20;;;;;;4983459;28;20042;-70
2022/07/10 05:41:12;;;;;;;4.63;0.65;;;14.20;68.10;;;;;;4958268;28;20027;-70
2022/07/10 05:43:38;;;;;;;2.75;0.32;;;14.30;68.10;;;;;;4958675;28;20047;-71
2022/07/10 05:46:04;;;;;;;2.75;0.70;;;14.30;68.00;;;;;;4943164;28;20118;-70
2022/07/10 05:48:29;;;;;;;4.72;0.50;;;14.30;68.00;;;;;;4937647;28;20038;-70
2022/07/10 05:50:55;;;;;;;3.85;0.50;;;14.40;67.90;;;;;;4970581;28;20395;-71
2022/07/10 05:53:20;;;;;;;2.00;0.50;;;14.40;67.90;;;;;;4942764;28;20031;-71
2022/07/10 05:55:47;;;;;;;2.75;0.32;;;14.50;67.80;;;;;;4942377;28;20037;-69
2022/07/10 05:58:13;;;;;;;2.95;0.80;;;14.60;67.80;;;;;;4938053;28;20172;-70
2022/07/10 06:00:39;;;;;;;2.58;0.68;;;14.60;67.60;;;;;;4947135;28;20045;-71
2022/07/10 06:03:05;;;;;;;2.47;0.65;;;14.70;67.50;;;;;;4924456;28;20071;-70
2022/07/10 06:05:31;;;;;;;2.03;0.50;;;14.70;67.30;;;;;;4964421;28;20067;-71
2022/07/10 06:07:56;;;;;;;2.53;0.70;;;14.80;67.20;;;;;;4961765;28;20126;-69
2022/07/10 06:10:22;;;;;;;3.28;0.70;;;14.80;67.10;;;;;;4936821;28;20034;-72
2022/07/10 06:12:47;;;;;;;1.30;0.68;;;14.90;67.00;;;;;;4947432;28;20050;-70
2022/07/10 06:15:13;;;;;;;2.22;0.55;;;14.90;66.80;;;;;;4942731;28;20760;-69
2022/07/10 06:17:38;;;;;;;6.38;0.68;;;15.00;66.70;;;;;;4934677;28;20043;-70
2022/07/10 06:20:05;;;;;;;3.20;0.57;;;15.00;66.50;;;;;;4926004;28;20047;-71
2022/07/10 06:22:30;;;;;;;3.50;0.60;;;15.10;66.40;;;;;;4932199;28;20042;-71
2022/07/10 06:24:56;;;;;;;1.30;0.40;;;15.20;66.20;;;;;;4944202;28;20046;-70
2022/07/10 06:27:22;;;;;;;3.88;0.60;;;15.30;66.20;;;;;;4947457;28;20610;-71
2022/07/10 06:29:48;;;;;;;5.15;0.80;;;15.40;66.00;;;;;;4922764;28;20212;-69
2022/07/10 06:32:13;;;;;;;4.38;0.60;;;15.50;65.70;;;;;;4952271;28;20459;-69
2022/07/10 06:34:39;;;;;;;5.35;0.93;;;15.60;65.40;;;;;;4967217;28;20027;-71
2022/07/10 06:37:05;;;;;;;2.17;0.40;;;15.70;65.00;;;;;;4928322;28;20520;-72
2022/07/10 06:39:34;;;;;;;2.08;0.40;;;15.80;64.50;;;;;;4944983;28;20042;-71
2022/07/10 06:42:00;;;;;;;1.50;0.40;;;15.90;64.10;;;;;;4934570;28;20039;-71
2022/07/10 06:44:25;;;;;;;2.30;0.55;;;16.00;64.00;;;;;;4929627;28;20147;-71
2022/07/10 06:49:35;;;;;;;0.82;0.30;;;16.30;63.20;;;;;;4942965;28;20050;-70
2022/07/10 06:52:00;;;;;;;2.60;0.52;;;16.40;62.80;;;;;;4942864;28;20047;-71
2022/07/10 06:54:26;;;;;;;1.20;0.40;;;16.50;62.60;;;;;;4948733;28;20043;-70
2022/07/10 06:56:51;;;;;;;4.85;1.17;;;16.60;62.50;;;;;;4954909;28;20039;-71
2022/07/10 06:59:17;;;;;;;2.85;0.47;;;16.80;62.30;;;;;;4941132;28;20090;-72
2022/07/10 07:01:42;;;;;;;4.07;0.70;;;16.90;61.80;;;;;;4931506;28;20429;-71
2022/07/10 07:04:08;;;;;;;2.53;0.60;;;17.00;61.40;;;;;;4938894;28;20042;-70
2022/07/10 07:06:33;;;;;;;2.60;0.60;;;17.10;61.20;;;;;;4970670;28;20043;-72
2022/07/10 07:08:59;;;;;;;3.33;0.47;;;17.10;60.70;;;;;;4946533;28;20689;-73
2022/07/10 07:11:24;;;;;;;6.50;1.13;;;17.20;60.50;;;;;;4933145;28;20515;-71
2022/07/10 07:13:50;;;;;;;0.80;0.32;;;17.30;60.40;;;;;;4951226;28;20067;-71
2022/07/10 07:16:18;;;;;;;2.30;0.22;;;17.40;60.00;;;;;;4967162;28;20054;-70
2022/07/10 07:18:52;;;;;;;0.77;0.40;;;17.40;59.70;;;;;;4943527;28;20067;-71
2022/07/10 07:24:03;;;;;;;0.85;0.30;;;17.60;59.30;;;;;;4965878;28;20101;-70
2022/07/10 07:26:29;;;;;;;1.00;0.40;;;17.60;59.20;;;;;;4953315;28;20042;-71
2022/07/10 07:28:54;;;;;;;2.17;0.47;;;17.70;59.00;;;;;;4953469;28;20401;-70
2022/07/10 07:31:20;;;;;;;2.05;0.30;;;17.80;58.80;;;;;;4924446;28;20634;-71
2022/07/10 07:33:46;;;;;;;2.50;0.32;;;17.80;58.30;;;;;;4967035;28;21538;-72
2022/07/10 07:36:11;;;;;;;2.40;0.60;;;17.90;58.10;;;;;;4964549;28;20518;-71
2022/07/10 07:38:37;;;;;;;1.17;0.30;;;18.00;58.00;;;;;;4960047;28;20077;-71
2022/07/10 07:41:02;;;;;;;1.23;0.30;;;18.10;57.60;;;;;;4918796;28;20058;-71
2022/07/10 07:43:28;;;;;;;1.75;0.40;;;18.10;57.30;;;;;;4936061;28;20069;-70
2022/07/10 07:45:53;;;;;;;2.00;0.50;;;18.20;57.10;;;;;;4934548;28;20070;-71
2022/07/10 07:48:19;;;;;;;2.25;0.85;;;18.30;56.80;;;;;;4950505;28;20035;-71
2022/07/10 07:50:44;;;;;;;0.90;0.40;;;18.30;56.60;;;;;;4918991;28;20082;-70
2022/07/10 07:53:10;;;;;;;1.60;0.22;;;18.30;56.40;;;;;;4934443;28;20122;-71
2022/07/10 07:55:35;;;;;;;1.33;0.28;;;18.40;56.30;;;;;;4956755;28;20755;-70
2022/07/10 07:58:02;;;;;;;1.10;0.40;;;18.50;56.10;;;;;;4949609;28;20058;-71
2022/07/10 08:00:28;;;;;;;1.25;0.38;;;18.70;55.90;;;;;;4934575;28;20082;-71
2022/07/10 08:02:54;;;;;;;1.65;0.75;;;18.80;55.50;;;;;;4935305;28;20501;-71
2022/07/10 08:05:20;;;;;;;3.00;0.30;;;19.00;55.10;;;;;;4908448;28;20039;-71
2022/07/10 08:07:47;;;;;;;1.98;0.28;;;19.10;54.60;;;;;;4927453;28;20436;-72
2022/07/10 08:10:14;;;;;;;2.65;0.60;;;19.20;54.10;;;;;;4932228;28;20035;-70
2022/07/10 08:12:40;;;;;;;2.65;0.40;;;19.30;53.80;;;;;;4936439;28;20550;-71
2022/07/10 08:15:16;;;;;;;2.60;0.50;;;19.30;53.40;;;;;;4948235;28;20060;-71
2022/07/10 08:17:42;;;;;;;1.45;0.20;;;19.40;52.30;;;;;;4962899;28;20049;-70
2022/07/10 08:20:12;;;;;;;0.95;0.22;;;19.50;52.90;;;;;;4962129;28;20050;-71
2022/07/10 08:22:38;;;;;;;1.20;0.30;;;19.50;52.30;;;;;;4929533;28;20049;-71
2022/07/10 08:25:04;;;;;;;0.73;0.28;;;19.60;52.30;;;;;;4961813;28;20408;-71
2022/07/10 08:27:29;;;;;;;2.03;0.30;;;19.60;51.90;;;;;;4947590;28;20053;-71
2022/07/10 08:29:55;;;;;;;0.68;0.30;;;19.60;51.80;;;;;;4935707;28;20039;-70
2022/07/10 08:32:20;;;;;;;2.10;0.40;;;19.70;51.60;;;;;;4954160;28;20565;-71
2022/07/10 08:34:47;;;;;;;1.67;0.40;;;19.80;51.50;;;;;;4906165;28;20042;-70
2022/07/10 08:37:13;;;;;;;0.82;0.43;;;19.80;51.30;;;;;;4937311;28;20062;-71
2022/07/10 08:39:39;;;;;;;0.98;0.15;;;19.90;51.10;;;;;;4947144;28;20793;-70
2022/07/10 08:42:05;;;;;;;1.00;0.30;;;19.90;50.90;;;;;;4934734;28;20036;-73
2022/07/10 08:44:31;;;;;;;1.20;0.20;;;19.90;50.80;;;;;;4938328;28;20232;-70
2022/07/10 08:46:57;;;;;;;4.85;0.47;;;19.90;50.70;;;;;;4944618;28;20069;-71
2022/07/10 08:49:30;;;;;;;5.18;0.60;;;19.90;50.60;;;;;;4928936;28;20054;-71
2022/07/10 08:52:00;;;;;;;1.27;0.40;;;20.00;50.20;;;;;;4939210;28;20039;-71
2022/07/10 08:54:29;;;;;;;2.00;0.85;;;20.10;50.40;;;;;;4935279;28;20110;-70
2022/07/10 08:56:58;;;;;;;1.15;0.43;;;20.10;50.20;;;;;;4938119;28;20388;-70
2022/07/10 08:59:24;;;;;;;3.33;0.55;;;20.20;50.20;;;;;;4931322;28;20055;-70
2022/07/10 09:01:49;;;;;;;2.67;0.40;;;20.30;50.10;;;;;;4936995;28;20066;-71
2022/07/10 09:04:18;;;;;;;1.90;0.40;;;20.20;50.30;;;;;;4948348;28;20043;-71
2022/07/10 09:06:44;;;;;;;0.85;0.30;;;20.30;49.80;;;;;;4910634;28;20038;-71
2022/07/10 09:09:10;;;;;;;1.23;0.40;;;20.30;49.70;;;;;;4963890;28;20066;-71
2022/07/10 09:11:38;;;;;;;1.73;0.30;;;20.30;49.70;;;;;;4941971;28;20043;-70
2022/07/10 09:14:04;;;;;;;2.35;0.30;;;20.30;49.70;;;;;;4964942;28;20023;-72
2022/07/10 09:16:36;;;;;;;1.45;0.40;;;20.30;49.60;;;;;;4954285;28;20392;-71
2022/07/10 09:19:27;;;;;;;1.20;0.35;;;20.30;49.40;;;;;;4953274;28;20045;-70
2022/07/10 09:22:06;;;;;;;1.50;0.40;;;20.30;48.90;;;;;;4957263;28;20572;-70
2022/07/10 09:24:45;;;;;;;1.80;0.50;;;20.30;49.00;;;;;;4981303;28;20037;-70
2022/07/10 09:27:15;;;;;;;1.30;0.25;;;20.30;49.20;;;;;;4968852;28;20048;-70
2022/07/10 09:29:56;;;;;;;1.35;0.30;;;20.20;49.20;;;;;;4937366;28;20063;-70
2022/07/10 09:32:22;;;;;;;;;;;20.20;49.00;;;;;;4928286;28;20537;-70
2022/07/10 09:34:48;;;;;;;1.10;0.47;;;20.20;49.30;;;;;;4970123;28;19917;-70
2022/07/10 09:37:29;;;;;;;2.13;0.30;;;20.30;49.50;;;;;;4964112;28;20047;-70
2022/07/10 09:39:56;;;;;;;1.45;0.30;;;20.30;49.20;;;;;;4966865;28;20061;-72
2022/07/10 09:42:42;;;;;;;0.90;0.20;;;20.40;49.30;;;;;;4974360;28;20045;-71
2022/07/10 09:45:17;;;;;;;1.13;0.30;;;20.40;48.80;;;;;;4956170;28;20118;-71
2022/07/10 09:47:58;;;;;;;1.67;0.88;;;20.50;49.10;;;;;;4951159;28;20058;-71
2022/07/10 09:50:31;;;;;;;1.00;0.60;;;20.50;48.80;;;;;;4950579;28;20092;-71
2022/07/10 09:53:02;;;;;;;2.05;0.43;;;20.60;48.80;;;;;;4967829;28;20034;-70
2022/07/10 09:55:34;;;;;;;0.40;0.30;;;20.60;48.80;;;;;;4958862;28;20034;-71
2022/07/10 09:58:05;;;;;;;2.15;0.38;;;20.60;48.60;;;;;;4952224;28;20043;-71
2022/07/10 10:00:35;;;;;;;1.10;0.60;;;20.70;48.70;;;;;;4946459;28;20039;-71
2022/07/10 10:03:01;;;;;;;1.85;0.30;;;20.80;48.70;;;;;;4939086;28;20028;-70
2022/07/10 10:05:31;;;;;;;3.45;0.40;;;20.80;48.60;;;;;;4938186;28;20114;-71
2022/07/10 10:07:58;;;;;;;1.45;0.60;;;20.90;48.60;;;;;;4950873;28;20412;-71
2022/07/10 10:10:24;;;;;;;1.63;0.40;;;21.00;48.50;;;;;;4947552;28;20035;-70
2022/07/10 10:12:52;;;;;;;1.65;0.40;;;21.10;48.50;;;;;;4943336;28;20047;-71
2022/07/10 10:15:17;;;;;;;2.58;0.38;;;21.10;48.10;;;;;;4950971;28;20495;-71
2022/07/10 10:17:43;;;;;;;1.20;0.40;;;21.20;48.20;;;;;;4941846;28;20057;-71
2022/07/10 10:22:55;;;;;;;2.42;0.40;;;21.30;47.90;;;;;;4934946;28;20046;-70
2022/07/10 10:25:20;;;;;;;2.22;0.50;;;21.50;48.00;;;;;;4937035;28;20033;-71
2022/07/10 10:27:46;;;;;;;2.95;0.45;;;21.60;47.80;;;;;;4943836;28;20042;-71
2022/07/10 10:30:12;;;;;;;1.40;0.30;;;21.80;47.60;;;;;;4940616;28;20041;-71
2022/07/10 10:32:40;;;;;;;1.13;0.52;;;21.80;47.90;;;;;;4915163;28;20485;-71
2022/07/10 10:35:09;;;;;;;1.52;0.35;;;21.90;47.10;;;;;;4925653;28;20058;-70
2022/07/10 10:37:43;;;;;;;1.20;0.50;;;22.00;47.10;;;;;;4947346;28;20096;-71
2022/07/10 10:40:10;;;;;;;0.80;0.30;;;22.10;46.80;;;;;;4939949;28;20039;-70
2022/07/10 10:42:40;;;;;;;2.10;0.50;;;22.10;46.80;;;;;;4932962;28;20101;-71
2022/07/10 10:45:31;;;;;;;0.57;0.25;;;22.20;46.70;;;;;;4945017;28;20050;-71
2022/07/10 10:48:00;;;;;;;0.55;0.30;;;22.20;46.00;;;;;;4924166;28;20043;-72
2022/07/10 10:50:52;;;;;;;3.30;0.80;;;22.30;46.50;;;;;;4928664;28;20053;-72
2022/07/10 10:53:27;;;;;;;1.05;0.22;;;22.40;46.20;;;;;;4952678;28;20061;-70
2022/07/10 10:56:13;;;;;;;2.15;0.43;;;22.40;46.30;;;;;;4968518;28;20080;-71
2022/07/10 10:58:43;;;;;;;1.95;0.30;;;22.50;46.00;;;;;;4947693;28;20272;-71
2022/07/10 11:01:20;;;;;;;1.13;0.40;;;22.60;46.30;;;;;;4951136;28;20073;-72
2022/07/10 11:04:04;;;;;;;0.77;0.30;;;22.60;45.80;;;;;;4938302;28;20120;-73
2022/07/10 11:06:40;;;;;;;4.80;0.60;;;22.70;45.50;;;;;;4960541;28;20086;-71
2022/07/10 11:09:30;;;;;;;1.83;0.38;;;22.80;45.70;;;;;;4961462;28;20617;-71
2022/07/10 11:12:03;;;;;;;0.82;0.30;;;22.90;45.60;;;;;;4941992;28;20088;-71
2022/07/10 11:14:29;;;;;;;1.38;0.30;;;23.00;45.70;;;;;;4931473;28;20182;-73
2022/07/10 11:16:55;;;;;;;1.65;0.30;;;23.20;45.60;;;;;;4947320;28;20122;-71
2022/07/10 11:19:22;;;;;;;2.35;0.60;;;23.30;45.40;;;;;;4916141;28;20110;-71
2022/07/10 11:21:48;;;;;;;2.05;0.43;;;23.40;45.30;;;;;;4921655;28;20070;-72
2022/07/10 11:24:50;;;;;;;1.05;0.32;;;23.60;45.20;;;;;;4943696;28;20512;-71
2022/07/10 11:27:39;;;;;;;1.45;0.38;;;23.60;44.80;;;;;;4905943;28;20038;-71
2022/07/10 11:30:06;;;;;;;1.38;0.35;;;23.70;44.60;;;;;;4979397;28;20034;-70
2022/07/10 11:32:31;;;;;;;0.85;0.30;;;23.70;44.60;;;;;;4943905;28;20048;-71
2022/07/10 11:34:57;;;;;;;1.38;0.40;;;23.80;44.40;;;;;;4911274;28;20027;-72
2022/07/10 11:37:27;;;;;;;2.33;0.77;;;23.70;44.10;;;;;;4934949;28;20042;-70
2022/07/10 11:40:07;;;;;;;2.63;0.40;;;23.60;44.00;;;;;;4954843;28;20140;-71
2022/07/10 11:42:53;;;;;;;4.07;0.32;;;23.60;44.20;;;;;;4942123;28;20039;-72
2022/07/10 11:45:30;;;;;;;1.80;0.30;;;23.70;43.90;;;;;;4919436;28;20043;-70
2022/07/10 11:47:56;;;;;;;3.85;2.40;;;23.70;44.10;;;;;;4936243;28;20046;-70
2022/07/10 11:50:22;;;;;;;4.93;1.70;;;23.80;44.10;;;;;;4934249;28;20047;-71
2022/07/10 11:52:49;;;;;;;1.77;0.95;;;23.90;44.00;;;;;;4926487;28;20034;-71
2022/07/10 11:55:16;;;;;;;3.25;0.40;;;23.90;43.80;;;;;;4940315;28;20046;-71
2022/07/10 11:57:42;;;;;;;2.13;0.55;;;24.00;43.80;;;;;;4963128;28;20038;-71
2022/07/10 12:00:19;;;;;;;0.85;0.50;;;24.10;43.70;;;;;;4954148;28;20046;-71
2022/07/10 12:02:45;;;;;;;1.77;0.60;;;24.20;43.50;;;;;;4919762;28;20039;-72
2022/07/10 12:05:35;;;;;;;4.22;1.40;;;24.20;43.30;;;;;;4952062;28;20561;-70
2022/07/10 12:08:01;;;;;;;2.00;0.90;;;24.30;42.60;;;;;;4937730;28;20038;-71
2022/07/10 12:10:29;;;;;;;1.85;1.02;;;24.30;43.10;;;;;;4943353;28;20080;-71
2022/07/10 12:13:11;;;;;;;1.70;0.75;;;24.40;43.10;;;;;;4963603;28;20035;-71
2022/07/10 12:15:41;;;;;;;1.30;0.65;;;24.40;42.50;;;;;;4965638;28;20046;-72
2022/07/10 12:18:17;;;;;;;0.88;0.50;;;24.50;43.00;;;;;;4986052;28;20090;-70
2022/07/10 12:20:45;;;;;;;1.42;0.40;;;24.50;42.90;;;;;;4972561;28;20749;-72
2022/07/10 12:23:12;;;;;;;1.85;0.52;;;24.60;43.50;;;;;;4929511;28;20495;-71
2022/07/10 12:25:37;;;;;;;0.82;0.30;;;24.60;42.50;;;;;;4966416;28;20035;-72
2022/07/10 12:28:03;;;;;;;1.27;0.30;;;24.60;42.30;;;;;;4955164;28;20039;-71
2022/07/10 12:30:40;;;;;;;1.17;0.30;;;24.60;42.30;;;;;;4960718;28;20062;-72
2022/07/10 12:33:19;;;;;;;2.08;0.32;;;24.60;42.10;;;;;;4956777;28;20643;-72
2022/07/10 12:35:51;;;;;;;2.30;0.40;;;24.60;42.10;;;;;;4941507;28;20222;-71
2022/07/10 12:38:21;;;;;;;2.25;0.50;;;24.60;42.20;;;;;;4951023;28;20050;-70
2022/07/10 12:40:47;;;;;;;5.05;0.50;;;24.60;42.10;;;;;;4933651;28;20038;-71
2022/07/10 12:43:12;;;;;;;0.50;0.40;;;24.60;42.20;;;;;;4925799;28;20431;-72
2022/07/10 12:45:38;;;;;;;2.53;0.40;;;24.60;42.10;;;;;;4951681;28;20523;-70
2022/07/10 12:48:06;;;;;;;1.00;0.43;;;24.70;42.10;;;;;;4935454;28;20038;-71
2022/07/10 12:50:32;;;;;;;2.17;0.30;;;24.80;42.00;;;;;;4932392;28;20038;-71
2022/07/10 12:53:11;;;;;;;1.35;0.40;;;24.90;42.10;;;;;;4960981;28;20039;-71
2022/07/10 12:55:37;;;;;;;0.75;0.20;;;25.00;41.50;;;;;;4959026;28;20126;-70
2022/07/10 12:58:08;;;;;;;1.38;0.30;;;25.00;41.60;;;;;;4941088;28;20220;-72
2022/07/10 13:00:35;;;;;;;2.25;0.40;;;25.10;41.20;;;;;;4936643;28;20030;-71